Time;durP1;ratioP1;P1;durP2;ratioP2;P2;SDS_P1;SDS_P2;PMS_P1;PMS_P2;Temp;Humidity;BMP_temperature;BMP_pressure;BME280_temperature;BME280_humidity;BME280_pressure;Samples;Min_cycle;Max_cycle;Signal;HPM_P1;HPM_P2
2021/09/01 00:00:25;;;;;;;8.88;6.80;;;;;;;7.80;100.00;93856.03;2097619;28;20493;-86
2021/09/01 00:01:26;;;;;;;7.40;6.60;;;;;;;7.83;100.00;93855.28;2097403;28;20032;-86
2021/09/01 00:02:27;;;;;;;9.63;7.35;;;;;;;7.88;100.00;93852.22;2089950;28;20036;-86
2021/09/01 00:03:28;;;;;;;7.78;6.97;;;;;;;7.71;100.00;93848.41;2089667;28;20025;-85
2021/09/01 00:04:29;;;;;;;7.65;6.25;;;;;;;7.73;100.00;93848.06;2089365;28;20022;-87
2021/09/01 00:05:30;;;;;;;9.90;6.65;;;;;;;7.73;100.00;93853.38;2089044;28;20052;-85
2021/09/01 00:06:31;;;;;;;7.53;6.75;;;;;;;7.69;100.00;93852.63;2096773;28;20086;-86
2021/09/01 00:07:32;;;;;;;7.53;6.78;;;;;;;7.63;100.00;93844.22;2088833;28;20033;-85
2021/09/01 00:08:33;;;;;;;8.70;6.32;;;;;;;7.55;100.00;93848.00;2088632;28;20021;-86
2021/09/01 00:09:37;;;;;;;8.48;6.40;;;;;;;7.64;100.00;93851.09;2097428;28;20029;-86
2021/09/01 00:10:38;;;;;;;13.18;6.65;;;;;;;7.61;100.00;93845.75;2097546;28;20381;-84
2021/09/01 00:11:39;;;;;;;11.98;7.15;;;;;;;7.56;100.00;93847.66;2097107;28;20052;-83
2021/09/01 00:12:42;;;;;;;7.20;6.53;;;;;;;7.63;100.00;93854.09;2089142;28;20433;-87
2021/09/01 00:13:43;;;;;;;9.15;6.90;;;;;;;7.68;100.00;93859.06;2089230;28;20032;-83
2021/09/01 00:14:44;;;;;;;8.30;7.07;;;;;;;7.68;100.00;93840.44;2088049;28;20029;-86
2021/09/01 00:15:45;;;;;;;8.30;6.90;;;;;;;7.67;100.00;93852.22;2089552;28;20025;-82
2021/09/01 00:16:46;;;;;;;11.70;7.55;;;;;;;7.62;100.00;93850.69;2097148;28;20027;-83
2021/09/01 00:17:47;;;;;;;7.75;6.80;;;;;;;7.63;100.00;93843.47;2089332;28;20021;-83
2021/09/01 00:18:48;;;;;;;11.23;6.97;;;;;;;7.68;100.00;93849.19;2097427;28;20024;-86
2021/09/01 00:19:49;;;;;;;10.30;7.93;;;;;;;7.73;100.00;93843.50;2097354;28;20074;-81
2021/09/01 00:20:50;;;;;;;8.02;7.13;;;;;;;7.73;100.00;93848.81;2097313;28;20111;-85
2021/09/01 00:21:51;;;;;;;9.88;7.10;;;;;;;7.75;100.00;93849.19;2097395;28;20044;-87
2021/09/01 00:22:55;;;;;;;10.10;7.32;;;;;;;7.74;100.00;93846.91;2096614;28;20020;-84
2021/09/01 00:23:56;;;;;;;10.35;8.00;;;;;;;7.68;100.00;93845.75;2097837;28;20074;-85
2021/09/01 00:24:57;;;;;;;10.07;7.90;;;;;;;7.69;100.00;93847.28;2095970;28;20020;-86
2021/09/01 00:25:57;;;;;;;9.73;8.70;;;;;;;7.72;100.00;93846.50;2097122;28;20020;-86
2021/09/01 00:26:58;;;;;;;9.82;8.60;;;;;;;7.70;100.00;93843.47;2095574;28;20066;-81
2021/09/01 00:27:59;;;;;;;11.50;8.90;;;;;;;7.80;100.00;93845.38;2088564;28;20379;-83
2021/09/01 00:29:01;;;;;;;12.73;8.50;;;;;;;7.74;100.00;93852.22;2087660;28;20056;-86
2021/09/01 00:30:04;;;;;;;10.10;8.55;;;;;;;7.72;100.00;93844.59;2097244;28;20047;-86
2021/09/01 00:31:05;;;;;;;14.15;8.75;;;;;;;7.77;100.00;93843.47;2097670;28;20032;-81
2021/09/01 00:32:06;;;;;;;10.93;9.48;;;;;;;7.68;100.00;93841.22;2098888;28;20020;-84
2021/09/01 00:33:07;;;;;;;12.10;9.13;;;;;;;7.73;100.00;93837.41;2097468;28;20024;-86
2021/09/01 00:34:08;;;;;;;12.52;10.20;;;;;;;7.66;100.00;93848.03;2105226;28;20059;-85
2021/09/01 00:35:09;;;;;;;10.02;8.93;;;;;;;7.75;100.00;93843.88;2105222;28;20020;-86
2021/09/01 00:36:10;;;;;;;13.02;9.93;;;;;;;7.81;100.00;93844.22;2096941;28;20020;-88
2021/09/01 00:37:12;;;;;;;14.73;10.38;;;;;;;7.80;100.00;93854.13;2098555;28;20543;-85
2021/09/01 00:38:13;;;;;;;14.35;10.77;;;;;;;7.72;100.00;93841.19;2090345;28;20086;-86
2021/09/01 00:39:14;;;;;;;16.73;10.73;;;;;;;7.72;100.00;93841.94;2096905;28;20109;-88
2021/09/01 00:40:15;;;;;;;12.40;10.50;;;;;;;7.69;100.00;93847.28;2097019;28;20032;-82
2021/09/01 00:41:24;;;;;;;13.13;10.60;;;;;;;7.65;100.00;93844.63;2096553;28;20103;-87
2021/09/01 00:42:25;;;;;;;11.50;9.93;;;;;;;7.62;100.00;93842.72;2098235;28;20024;-83
2021/09/01 00:43:26;;;;;;;15.73;10.30;;;;;;;7.58;100.00;93844.59;2096534;28;20024;-83
2021/09/01 00:44:27;;;;;;;12.55;10.00;;;;;;;7.48;100.00;93843.44;2096454;28;20035;-85
2021/09/01 00:45:28;;;;;;;12.13;10.32;;;;;;;7.53;100.00;93842.31;2096975;28;20055;-87
2021/09/01 00:46:29;;;;;;;11.82;9.45;;;;;;;7.51;100.00;93841.94;2088344;28;20477;-83
2021/09/01 00:47:30;;;;;;;13.35;10.70;;;;;;;7.46;100.00;93840.41;2089070;28;20082;-82
2021/09/01 00:48:31;;;;;;;14.40;10.48;;;;;;;7.42;100.00;93842.31;2097581;28;20606;-84
2021/09/01 00:49:32;;;;;;;11.93;9.70;;;;;;;7.45;100.00;93843.44;2113192;27;20678;-89
2021/09/01 00:50:33;;;;;;;12.93;9.88;;;;;;;7.42;100.00;93838.88;2113343;28;20027;-87
2021/09/01 00:51:35;;;;;;;11.57;9.40;;;;;;;7.42;100.00;93849.50;2104368;28;20031;-84
2021/09/01 00:52:38;;;;;;;12.85;9.63;;;;;;;7.43;100.00;93849.16;2104997;28;20483;-85
2021/09/01 00:53:43;;;;;;;15.63;9.63;;;;;;;7.39;100.00;93843.06;2103047;28;20476;-84
2021/09/01 00:54:45;;;;;;;12.05;8.73;;;;;;;7.36;100.00;93843.81;2097474;28;20116;-89
2021/09/01 00:55:47;;;;;;;14.00;11.13;;;;;;;7.42;100.00;93847.63;2112408;28;20030;-85
2021/09/01 00:56:52;;;;;;;12.13;9.75;;;;;;;7.33;100.00;93847.19;2104696;28;20023;-87
2021/09/01 00:57:53;;;;;;;12.68;9.73;;;;;;;7.34;100.00;93843.44;2090544;28;20467;-87
2021/09/01 00:58:54;;;;;;;12.70;9.07;;;;;;;7.37;100.00;93850.63;2096079;28;20025;-81
2021/09/01 00:59:56;;;;;;;11.98;10.63;;;;;;;7.28;100.00;93850.22;2104945;28;20424;-84
2021/09/01 01:02:14;;;;;;;12.23;9.18;;;;;;;7.33;100.00;93849.88;2100176;28;20024;-86
2021/09/01 01:03:15;;;;;;;11.13;9.45;;;;;;;7.37;100.00;93844.56;2105271;28;20039;-81
2021/09/01 01:04:16;;;;;;;12.35;10.38;;;;;;;7.32;100.00;93846.44;2104568;28;20111;-86
2021/09/01 01:05:18;;;;;;;12.85;9.75;;;;;;;7.30;100.00;93853.28;2095995;28;20024;-84
2021/09/01 01:06:29;;;;;;;12.68;9.95;;;;;;;7.32;100.00;93851.75;2088184;28;20013;-86
2021/09/01 01:07:29;;;;;;;13.48;10.50;;;;;;;7.31;100.00;93847.59;2098448;28;20021;-85
2021/09/01 01:08:31;;;;;;;12.68;9.48;;;;;;;7.27;100.00;93856.69;2097494;28;20025;-85
2021/09/01 01:09:34;;;;;;;13.07;10.27;;;;;;;7.32;100.00;93856.31;2097973;28;20017;-84
2021/09/01 01:10:35;;;;;;;11.80;9.93;;;;;;;7.25;100.00;93854.44;2104208;28;20024;-86
2021/09/01 01:11:58;;;;;;;13.68;11.00;;;;;;;7.27;100.00;93854.78;2088346;28;20055;-82
2021/09/01 01:12:58;;;;;;;16.02;10.80;;;;;;;7.26;100.00;93850.63;2095702;28;20020;-85
2021/09/01 01:14:00;;;;;;;15.02;11.18;;;;;;;7.27;100.00;93852.13;2089197;28;20082;-86
2021/09/01 01:15:01;;;;;;;14.68;11.32;;;;;;;7.23;100.00;93853.25;2089345;28;20115;-84
2021/09/01 01:16:02;;;;;;;13.45;10.57;;;;;;;7.23;100.00;93855.94;2088039;28;20367;-85
2021/09/01 01:17:04;;;;;;;14.73;11.23;;;;;;;7.26;100.00;93855.94;2088779;28;20028;-82
2021/09/01 01:18:10;;;;;;;14.48;11.73;;;;;;;7.31;100.00;93852.91;2088716;28;20020;-85
2021/09/01 01:19:11;;;;;;;16.70;11.57;;;;;;;7.28;100.00;93852.91;2086725;28;20021;-85
2021/09/01 01:20:12;;;;;;;13.55;10.15;;;;;;;7.31;100.00;93860.13;2096625;28;20074;-83
2021/09/01 01:21:24;;;;;;;13.68;10.38;;;;;;;7.37;100.00;93858.63;2105282;28;20079;-86
2021/09/01 01:22:26;;;;;;;14.65;11.45;;;;;;;7.44;100.00;93855.22;2103816;28;20038;-88
2021/09/01 01:23:27;;;;;;;19.65;11.50;;;;;;;7.39;100.00;93851.03;2097287;28;20031;-84
2021/09/01 01:24:53;;;;;;;14.30;11.50;;;;;;;7.45;100.00;93854.06;2096607;28;20029;-86
2021/09/01 01:25:54;;;;;;;16.30;11.00;;;;;;;7.45;100.00;93856.75;2105304;28;20177;-85
2021/09/01 01:26:55;;;;;;;15.43;11.73;;;;;;;7.45;100.00;93849.53;2089067;28;20106;-85
2021/09/01 01:27:56;;;;;;;14.45;11.50;;;;;;;7.46;100.00;93855.59;2097813;28;20028;-87
2021/09/01 01:29:05;;;;;;;15.10;12.07;;;;;;;7.42;100.00;93857.47;2105031;28;20028;-86
2021/09/01 01:30:16;;;;;;;14.75;11.40;;;;;;;7.41;100.00;93858.63;2095692;28;20035;-88
2021/09/01 01:31:17;;;;;;;18.17;11.73;;;;;;;7.38;100.00;93857.50;2098405;28;20046;-86
2021/09/01 01:32:18;;;;;;;16.00;11.93;;;;;;;7.40;100.00;93855.22;2096641;28;20453;-86
2021/09/01 01:33:19;;;;;;;20.05;12.57;;;;;;;7.43;100.00;93853.72;2087930;28;20021;-88
2021/09/01 01:34:20;;;;;;;17.33;12.52;;;;;;;7.40;100.00;93855.22;2104577;28;20027;-86
2021/09/01 01:35:41;;;;;;;16.50;12.65;;;;;;;7.42;100.00;93858.28;2105252;28;20044;-86
2021/09/01 01:36:42;;;;;;;15.82;12.25;;;;;;;7.47;100.00;93852.56;2101652;28;20031;-84
2021/09/01 01:37:43;;;;;;;14.77;11.55;;;;;;;7.34;100.00;93854.06;2096272;28;20087;-84
2021/09/01 01:38:44;;;;;;;19.23;12.23;;;;;;;7.34;100.00;93855.97;2095538;28;20139;-86
2021/09/01 01:39:45;;;;;;;16.70;12.95;;;;;;;7.40;100.00;93859.78;2095362;28;20206;-85
2021/09/01 01:40:47;;;;;;;18.90;12.70;;;;;;;7.35;100.00;93858.25;2105015;28;20471;-83
2021/09/01 01:41:48;;;;;;;16.50;12.40;;;;;;;7.36;100.00;93854.44;2095427;28;20144;-84
2021/09/01 01:42:51;;;;;;;18.10;12.45;;;;;;;7.33;100.00;93855.19;2089346;28;20016;-86
2021/09/01 01:43:52;;;;;;;15.07;12.18;;;;;;;7.38;100.00;93854.84;2104391;28;20032;-89
2021/09/01 01:44:53;;;;;;;15.27;12.07;;;;;;;7.31;100.00;93854.81;2096637;28;20025;-84
2021/09/01 01:45:54;;;;;;;17.25;11.10;;;;;;;7.28;100.00;93863.53;2103726;28;20128;-84
2021/09/01 01:46:55;;;;;;;18.25;12.50;;;;;;;7.33;100.00;93857.84;2096415;28;20020;-88
2021/09/01 01:47:56;;;;;;;15.65;12.05;;;;;;;7.35;100.00;93860.16;2104664;28;20020;-86
2021/09/01 01:48:57;;;;;;;18.35;11.55;;;;;;;7.32;100.00;93856.31;2095993;28;20020;-85
2021/09/01 01:49:58;;;;;;;16.20;12.30;;;;;;;7.34;100.00;93859.38;2096390;28;20433;-84
2021/09/01 01:51:00;;;;;;;14.77;12.15;;;;;;;7.38;100.00;93865.47;2093727;28;20020;-85
2021/09/01 01:52:01;;;;;;;18.17;11.75;;;;;;;7.37;100.00;93868.50;2087221;28;20032;-84
2021/09/01 01:53:02;;;;;;;16.83;12.27;;;;;;;7.38;100.00;93857.50;2095742;28;20013;-82
2021/09/01 01:54:03;;;;;;;20.77;13.05;;;;;;;7.39;100.00;93866.22;2097610;28;20024;-84
2021/09/01 01:55:06;;;;;;;17.60;12.43;;;;;;;7.37;100.00;93863.19;2105292;28;20024;-82
2021/09/01 01:56:07;;;;;;;17.15;12.07;;;;;;;7.37;100.00;93855.97;2104949;28;20095;-86
2021/09/01 01:57:08;;;;;;;17.13;11.88;;;;;;;7.36;100.00;93857.09;2088390;28;20115;-84
2021/09/01 01:58:09;;;;;;;16.02;12.20;;;;;;;7.29;100.00;93852.53;2096514;28;20021;-85
2021/09/01 01:59:10;;;;;;;16.48;11.70;;;;;;;7.31;100.00;93865.44;2105033;28;20027;-85
2021/09/01 02:00:11;;;;;;;17.60;12.27;;;;;;;7.29;100.00;93852.53;2104789;28;20023;-85
2021/09/01 02:01:12;;;;;;;17.02;11.40;;;;;;;7.27;100.00;93856.69;2104750;28;20426;-87
2021/09/01 02:02:13;;;;;;;17.40;12.80;;;;;;;7.19;100.00;93852.50;2089667;28;20028;-82
2021/09/01 02:03:14;;;;;;;19.50;12.63;;;;;;;7.22;100.00;93857.06;2105116;28;20023;-85
2021/09/01 02:04:15;;;;;;;17.80;11.68;;;;;;;7.26;100.00;93852.53;2113447;28;20504;-87
2021/09/01 02:05:16;;;;;;;15.95;11.38;;;;;;;7.21;100.00;93856.31;2113648;28;20376;-88
2021/09/01 02:06:17;;;;;;;20.73;12.50;;;;;;;7.17;100.00;93852.13;2104679;28;20024;-87
2021/09/01 02:07:18;;;;;;;15.00;12.23;;;;;;;7.19;100.00;93858.56;2088813;28;20031;-83
2021/09/01 02:08:19;;;;;;;18.10;12.77;;;;;;;7.22;100.00;93854.41;2096843;28;20094;-85
2021/09/01 02:09:20;;;;;;;24.27;12.73;;;;;;;7.14;100.00;93853.63;2096712;28;20406;-89
2021/09/01 02:10:21;;;;;;;18.20;12.52;;;;;;;7.16;100.00;93859.34;2096875;28;20027;-83
2021/09/01 02:11:22;;;;;;;16.80;12.15;;;;;;;7.13;100.00;93859.31;2104830;28;20028;-84
2021/09/01 02:12:24;;;;;;;17.80;12.73;;;;;;;7.15;100.00;93862.34;2096883;28;20041;-85
2021/09/01 02:13:25;;;;;;;16.80;11.98;;;;;;;7.14;100.00;93852.84;2087804;28;20032;-86
2021/09/01 02:14:26;;;;;;;16.27;11.60;;;;;;;7.12;100.00;93852.50;2097428;28;20107;-84
2021/09/01 02:15:27;;;;;;;17.38;12.90;;;;;;;7.07;100.00;93854.38;2096727;28;20048;-83
2021/09/01 02:16:29;;;;;;;17.45;11.93;;;;;;;7.10;100.00;93858.16;2105013;28;20036;-84
2021/09/01 02:17:30;;;;;;;18.10;11.93;;;;;;;7.03;100.00;93856.25;2113159;28;20523;-85
2021/09/01 02:18:30;;;;;;;13.13;11.30;;;;;;;7.09;100.00;93858.53;2096510;28;20025;-84
2021/09/01 02:19:31;;;;;;;16.35;11.77;;;;;;;7.09;100.00;93855.88;2088341;28;20021;-86
2021/09/01 02:20:32;;;;;;;17.42;12.15;;;;;;;7.07;100.00;93859.69;2096445;28;20580;-85
2021/09/01 02:21:35;;;;;;;16.30;11.90;;;;;;;7.09;100.00;93861.19;2104689;28;20027;-85
2021/09/01 02:22:36;;;;;;;15.95;12.10;;;;;;;7.07;100.00;93854.38;2097128;28;20021;-84
2021/09/01 02:23:37;;;;;;;18.38;12.88;;;;;;;7.16;100.00;93866.56;2104655;28;20023;-87
2021/09/01 02:24:38;;;;;;;17.52;12.13;;;;;;;7.21;100.00;93860.88;2087253;28;20052;-87
2021/09/01 02:25:39;;;;;;;18.35;12.25;;;;;;;7.24;100.00;93860.09;2088478;28;20025;-83
2021/09/01 02:26:40;;;;;;;16.45;12.98;;;;;;;7.24;100.00;93855.56;2097189;28;20462;-85
2021/09/01 02:27:41;;;;;;;19.17;13.90;;;;;;;7.31;100.00;93857.47;2104242;28;20108;-84
2021/09/01 02:28:42;;;;;;;16.83;12.88;;;;;;;7.32;100.00;93865.06;2096773;28;20020;-84
2021/09/01 02:29:44;;;;;;;15.75;11.45;;;;;;;7.36;100.00;93859.75;2104843;28;20028;-82
2021/09/01 02:30:45;;;;;;;19.63;12.43;;;;;;;7.41;100.00;93863.94;2104571;28;20024;-87
2021/09/01 02:31:45;;;;;;;17.63;12.77;;;;;;;7.45;100.00;93860.16;2088638;28;20048;-84
2021/09/01 02:32:46;;;;;;;16.92;13.40;;;;;;;7.46;100.00;93868.91;2088191;28;20115;-84
2021/09/01 02:33:48;;;;;;;20.30;14.02;;;;;;;7.53;100.00;93863.59;2095356;28;20024;-84
2021/09/01 02:34:49;;;;;;;18.08;13.95;;;;;;;7.58;100.00;93863.97;2088086;28;20181;-85
2021/09/01 02:35:50;;;;;;;18.17;13.00;;;;;;;7.63;100.00;93860.19;2086386;28;20035;-83
2021/09/01 02:36:51;;;;;;;21.65;14.45;;;;;;;7.69;100.00;93858.69;2104566;28;20024;-86
2021/09/01 02:37:52;;;;;;;26.45;15.38;;;;;;;7.72;100.00;93863.25;2104635;28;20103;-84
2021/09/01 02:38:53;;;;;;;21.10;14.43;;;;;;;7.82;100.00;93857.19;2105089;28;20032;-86
2021/09/01 02:39:54;;;;;;;29.10;17.73;;;;;;;7.94;100.00;93856.03;2088636;28;20521;-84
2021/09/01 02:40:56;;;;;;;27.13;16.80;;;;;;;7.99;100.00;93860.22;2096597;28;20517;-86
2021/09/01 02:41:57;;;;;;;28.45;17.42;;;;;;;8.08;100.00;93858.72;2088986;28;20086;-83
2021/09/01 02:42:58;;;;;;;29.20;19.23;;;;;;;8.10;100.00;93865.56;2086346;28;20056;-87
2021/09/01 02:43:59;;;;;;;28.05;18.13;;;;;;;8.14;100.00;93863.66;2103112;28;20032;-87
2021/09/01 02:45:00;;;;;;;29.35;19.15;;;;;;;8.16;100.00;93861.34;2105270;28;20036;-85
2021/09/01 02:46:01;;;;;;;29.00;18.42;;;;;;;8.20;100.00;93862.88;2104904;28;20039;-84
2021/09/01 02:47:02;;;;;;;30.77;19.60;;;;;;;8.26;100.00;93858.69;2104524;28;20107;-89
2021/09/01 02:48:04;;;;;;;29.25;18.73;;;;;;;8.27;100.00;93862.88;2094715;28;20033;-85
2021/09/01 02:49:05;;;;;;;28.50;18.33;;;;;;;8.32;100.00;93861.72;2096519;28;20043;-87
2021/09/01 02:50:07;;;;;;;31.00;19.73;;;;;;;8.35;100.00;93863.63;2105428;28;21228;-86
2021/09/01 02:51:08;;;;;;;29.42;20.10;;;;;;;8.40;100.00;93863.28;2088299;28;20098;-83
2021/09/01 02:52:08;;;;;;;34.20;20.92;;;;;;;8.46;100.00;93858.31;2096308;28;20102;-87
2021/09/01 02:53:09;;;;;;;32.78;20.73;;;;;;;8.44;100.00;93861.38;2086696;28;20025;-86
2021/09/01 02:54:10;;;;;;;33.92;21.08;;;;;;;8.50;100.00;93856.41;2095055;28;20070;-86
2021/09/01 02:55:11;;;;;;;34.20;19.35;;;;;;;8.54;100.00;93865.91;2086743;28;20053;-88
2021/09/01 02:56:12;;;;;;;27.90;18.13;;;;;;;8.54;100.00;93865.16;2096966;28;20052;-86
2021/09/01 02:57:13;;;;;;;37.85;20.70;;;;;;;8.59;100.00;93856.75;2103725;28;20016;-86
2021/09/01 02:58:16;;;;;;;36.10;20.80;;;;;;;8.65;100.00;93863.22;2104810;28;20048;-82
2021/09/01 02:59:17;;;;;;;34.55;21.67;;;;;;;8.71;100.00;93860.94;2096671;28;20036;-83
2021/09/01 03:00:18;;;;;;;33.78;20.75;;;;;;;8.74;100.00;93860.94;2096456;28;20024;-85
2021/09/01 03:01:19;;;;;;;37.22;22.02;;;;;;;8.78;100.00;93860.88;2095576;28;20024;-84
2021/09/01 03:02:20;;;;;;;38.58;22.20;;;;;;;8.84;100.00;93859.38;2096257;28;20074;-87
2021/09/01 03:03:21;;;;;;;48.75;25.08;;;;;;;8.94;100.00;93865.81;2088164;28;20021;-86
2021/09/01 03:04:22;;;;;;;36.45;22.33;;;;;;;8.91;100.00;93854.03;2087408;28;20021;-84
2021/09/01 03:05:23;;;;;;;33.67;21.10;;;;;;;8.97;100.00;93860.47;2088067;28;20036;-84
2021/09/01 03:06:24;;;;;;;34.70;20.77;;;;;;;9.00;100.00;93862.38;2089457;28;20021;-84
2021/09/01 03:07:25;;;;;;;36.88;22.38;;;;;;;9.05;100.00;93861.22;2088192;28;20048;-86
2021/09/01 03:08:26;;;;;;;39.55;21.92;;;;;;;9.04;100.00;93855.13;2095817;28;20029;-83
2021/09/01 03:09:27;;;;;;;33.63;21.70;;;;;;;9.07;100.00;93857.00;2095503;28;20032;-86
2021/09/01 03:10:27;;;;;;;44.13;22.55;;;;;;;9.07;100.00;93851.66;2097122;28;20086;-84
2021/09/01 03:11:28;;;;;;;55.33;25.58;;;;;;;9.27;100.00;93853.88;2089570;28;20125;-83
2021/09/01 03:12:29;;;;;;;50.00;24.90;;;;;;;9.32;100.00;93848.13;2097595;28;20031;-85
2021/09/01 03:13:33;;;;;;;45.10;24.42;;;;;;;9.34;100.00;93843.16;2106033;28;20024;-84
2021/09/01 03:14:33;;;;;;;43.08;25.60;;;;;;;9.33;100.00;93847.72;2105484;28;20468;-85
2021/09/01 03:15:34;;;;;;;46.45;25.27;;;;;;;9.34;100.00;93848.47;2108699;28;20031;-83
2021/09/01 03:16:35;;;;;;;42.75;24.58;;;;;;;9.27;100.00;93845.88;2090039;28;20726;-87
2021/09/01 03:17:36;;;;;;;48.42;24.05;;;;;;;9.32;100.00;93843.53;2090400;28;20032;-85
2021/09/01 03:18:37;;;;;;;49.17;26.40;;;;;;;9.38;100.00;93843.88;2097275;28;20476;-84
2021/09/01 03:19:38;;;;;;;41.83;24.08;;;;;;;9.40;100.00;93843.53;2105315;28;20035;-83
2021/09/01 03:20:39;;;;;;;42.50;24.58;;;;;;;9.35;100.00;93842.03;2092144;28;20033;-85
2021/09/01 03:21:40;;;;;;;42.60;23.23;;;;;;;9.36;100.00;93846.19;2092161;28;20024;-84
2021/09/01 03:22:41;;;;;;;41.63;23.33;;;;;;;9.38;100.00;93840.47;2107119;28;20043;-84
2021/09/01 03:23:42;;;;;;;66.05;26.02;;;;;;;9.41;100.00;93835.13;2106933;28;20160;-83
2021/09/01 03:24:43;;;;;;;46.40;24.02;;;;;;;9.40;100.00;93844.28;2089918;28;20025;-84
2021/09/01 03:25:44;;;;;;;49.50;25.58;;;;;;;9.43;100.00;93832.03;2089785;28;20051;-84
2021/09/01 03:26:45;;;;;;;41.88;23.58;;;;;;;9.41;100.00;93835.13;2088441;28;20029;-84
2021/09/01 03:27:46;;;;;;;44.05;24.30;;;;;;;9.44;100.00;93833.56;2086331;28;20413;-83
2021/09/01 03:28:47;;;;;;;45.42;25.17;;;;;;;9.49;100.00;93841.94;2097159;28;20027;-83
2021/09/01 03:29:48;;;;;;;43.33;23.95;;;;;;;9.48;100.00;93835.09;2105386;28;20035;-84
2021/09/01 03:30:49;;;;;;;45.80;24.50;;;;;;;9.50;100.00;93838.09;2113803;28;20030;-83
2021/09/01 03:31:50;;;;;;;54.13;25.80;;;;;;;9.51;100.00;93831.63;2104232;28;20020;-85
2021/09/01 03:32:51;;;;;;;49.67;26.60;;;;;;;9.49;100.00;93825.91;2095567;28;20043;-83
2021/09/01 03:33:52;;;;;;;47.13;22.52;;;;;;;9.51;100.00;93834.28;2106100;28;20409;-83
2021/09/01 03:34:53;;;;;;;44.25;23.90;;;;;;;9.52;100.00;93829.69;2105720;28;20420;-86
2021/09/01 03:35:54;;;;;;;48.55;25.20;;;;;;;9.51;100.00;93836.19;2098841;28;20032;-82
2021/09/01 03:36:55;;;;;;;50.25;25.50;;;;;;;9.53;100.00;93829.34;2098545;28;20028;-84
2021/09/01 03:37:56;;;;;;;39.95;22.83;;;;;;;9.51;100.00;93830.84;2104533;28;20020;-84
2021/09/01 03:38:57;;;;;;;63.08;26.70;;;;;;;9.54;100.00;93825.50;2106067;28;20028;-85
2021/09/01 03:39:59;;;;;;;81.85;25.95;;;;;;;9.56;100.00;93833.88;2113503;28;20560;-84
2021/09/01 03:41:03;;;;;;;94.78;26.23;;;;;;;9.59;100.00;93835.75;2105009;28;20031;-85
2021/09/01 03:42:04;;;;;;;270.10;26.23;;;;;;;9.59;100.00;93841.09;2096973;28;20025;-84
2021/09/01 03:43:05;;;;;;;46.92;24.33;;;;;;;9.60;100.00;93839.19;2099270;28;20505;-86
2021/09/01 03:44:06;;;;;;;211.38;25.42;;;;;;;9.59;100.00;93838.44;2095477;28;20492;-83
2021/09/01 03:45:08;;;;;;;83.55;24.50;;;;;;;9.56;100.00;93836.53;2089256;28;20509;-86
2021/09/01 03:46:09;;;;;;;77.43;25.23;;;;;;;9.55;100.00;93843.03;2097612;28;20036;-84
2021/09/01 03:47:10;;;;;;;150.82;27.90;;;;;;;9.59;100.00;93851.03;2105930;28;20106;-83
2021/09/01 03:48:11;;;;;;;136.40;24.55;;;;;;;9.57;100.00;93848.00;2096514;28;20031;-82
2021/09/01 03:49:17;;;;;;;137.35;24.23;;;;;;;9.57;100.00;93848.75;2097131;28;20017;-82
2021/09/01 03:50:18;;;;;;;128.07;24.13;;;;;;;9.61;100.00;93845.28;2097539;28;20024;-84
2021/09/01 03:51:18;;;;;;;177.77;21.45;;;;;;;9.58;100.00;93847.59;2089304;28;20452;-85
2021/09/01 03:52:19;;;;;;;73.35;22.00;;;;;;;9.63;100.00;93849.09;2088411;28;20021;-83
2021/09/01 03:53:20;;;;;;;69.90;21.08;;;;;;;9.64;100.00;93849.84;2090100;28;20020;-83
2021/09/01 03:54:21;;;;;;;59.70;22.42;;;;;;;9.61;100.00;93850.63;2089450;28;20021;-86
2021/09/01 03:55:22;;;;;;;103.20;22.15;;;;;;;9.55;100.00;93842.28;2091526;28;20045;-84
2021/09/01 03:56:23;;;;;;;113.10;19.90;;;;;;;9.59;100.00;93849.09;2089867;28;20033;-85
2021/09/01 03:57:24;;;;;;;42.90;20.75;;;;;;;9.61;100.00;93854.03;2097254;28;20032;-87
2021/09/01 03:58:25;;;;;;;73.82;19.45;;;;;;;9.59;100.00;93845.69;2105425;28;20020;-83
2021/09/01 03:59:26;;;;;;;30.85;18.52;;;;;;;9.60;100.00;93847.19;2097598;28;20058;-83
2021/09/01 04:00:27;;;;;;;53.78;18.58;;;;;;;9.63;100.00;93854.44;2088795;28;20066;-82
2021/09/01 04:01:28;;;;;;;105.30;18.20;;;;;;;9.57;100.00;93851.41;2088736;28;20032;-85
2021/09/01 04:02:29;;;;;;;50.92;17.83;;;;;;;9.56;100.00;93849.88;2097416;28;20024;-87
2021/09/01 04:03:30;;;;;;;75.82;17.90;;;;;;;9.59;100.00;93851.78;2087642;28;20020;-85
2021/09/01 04:04:31;;;;;;;62.55;17.13;;;;;;;9.55;100.00;93852.94;2097422;28;20024;-86
2021/09/01 04:05:32;;;;;;;60.47;17.45;;;;;;;9.58;100.00;93858.28;2096798;28;20028;-88
2021/09/01 04:06:33;;;;;;;31.15;17.38;;;;;;;9.56;100.00;93854.47;2095798;28;20585;-85
2021/09/01 04:07:34;;;;;;;69.15;17.45;;;;;;;9.57;100.00;93854.09;2088979;28;20082;-86
2021/09/01 04:08:37;;;;;;;83.38;18.77;;;;;;;9.54;100.00;93848.78;2088475;28;20975;-84
2021/09/01 04:09:38;;;;;;;35.72;17.80;;;;;;;9.58;100.00;93852.94;2099586;28;20159;-86
2021/09/01 04:10:39;;;;;;;30.48;17.38;;;;;;;9.58;100.00;93855.59;2107684;28;20489;-84
2021/09/01 04:11:40;;;;;;;39.05;16.88;;;;;;;9.63;100.00;93854.44;2104711;28;20023;-84
2021/09/01 04:12:41;;;;;;;52.47;16.77;;;;;;;9.65;100.00;93862.78;2089269;28;20107;-84
2021/09/01 04:13:41;;;;;;;55.10;17.73;;;;;;;9.64;100.00;93858.59;2088430;28;20025;-85
2021/09/01 04:14:42;;;;;;;32.13;18.20;;;;;;;9.59;100.00;93854.44;2088519;28;20035;-85
2021/09/01 04:15:43;;;;;;;43.03;16.63;;;;;;;9.58;100.00;93858.28;2104406;28;20107;-81
2021/09/01 04:16:44;;;;;;;59.67;17.05;;;;;;;9.55;100.00;93859.03;2096594;28;20024;-84
2021/09/01 04:17:45;;;;;;;47.72;16.88;;;;;;;9.52;100.00;93854.47;2087666;28;20791;-88
2021/09/01 04:18:47;;;;;;;37.75;16.90;;;;;;;9.56;100.00;93862.47;2088898;28;20104;-85
2021/09/01 04:19:48;;;;;;;33.47;17.40;;;;;;;9.62;100.00;93866.25;2089238;28;20021;-82
2021/09/01 04:20:49;;;;;;;53.30;17.02;;;;;;;9.59;100.00;93859.78;2096666;28;20020;-87
2021/09/01 04:21:50;;;;;;;36.08;17.58;;;;;;;9.61;100.00;93867.38;2088756;28;20033;-85
2021/09/01 04:22:51;;;;;;;63.90;17.60;;;;;;;9.58;100.00;93862.84;2089940;28;20565;-84
2021/09/01 04:23:52;;;;;;;31.38;17.90;;;;;;;9.57;100.00;93870.09;2089376;28;20032;-84
2021/09/01 04:24:53;;;;;;;28.58;16.73;;;;;;;9.59;100.00;93859.78;2089244;28;20025;-84
2021/09/01 04:25:54;;;;;;;41.70;16.73;;;;;;;9.59;100.00;93859.78;2088456;28;20521;-85
2021/09/01 04:26:55;;;;;;;38.88;16.25;;;;;;;9.55;100.00;93859.03;2096519;28;20099;-88
2021/09/01 04:27:56;;;;;;;34.47;16.60;;;;;;;9.56;100.00;93865.88;2097320;28;20028;-84
2021/09/01 04:28:57;;;;;;;32.30;16.70;;;;;;;9.55;100.00;93866.28;2097051;28;20028;-85
2021/09/01 04:29:58;;;;;;;27.58;14.23;;;;;;;9.54;100.00;93870.88;2090362;28;20037;-87
2021/09/01 04:30:58;;;;;;;29.38;14.20;;;;;;;9.55;100.00;93864.38;2098212;28;20028;-83
2021/09/01 04:31:59;;;;;;;25.95;15.02;;;;;;;9.57;100.00;93867.44;2099277;28;20024;-84
2021/09/01 04:33:00;;;;;;;23.38;14.35;;;;;;;9.57;100.00;93859.44;2097463;28;20072;-84
2021/09/01 04:34:03;;;;;;;31.60;14.70;;;;;;;9.56;100.00;93871.22;2105495;28;20073;-87
2021/09/01 04:35:04;;;;;;;36.67;16.02;;;;;;;9.54;100.00;93865.53;2097023;28;20028;-84
2021/09/01 04:36:05;;;;;;;43.35;15.38;;;;;;;9.52;100.00;93862.47;2087535;28;20025;-84
2021/09/01 04:37:06;;;;;;;29.48;17.42;;;;;;;9.55;100.00;93852.94;2088955;28;20036;-84
2021/09/01 04:38:07;;;;;;;37.55;15.70;;;;;;;9.56;100.00;93857.13;2097204;28;20021;-85
2021/09/01 04:39:08;;;;;;;34.45;15.57;;;;;;;9.56;100.00;93855.22;2097423;28;20492;-85
2021/09/01 04:40:09;;;;;;;40.15;15.63;;;;;;;9.56;100.00;93849.88;2099422;28;20028;-83
2021/09/01 04:41:10;;;;;;;31.33;15.63;;;;;;;9.55;100.00;93848.38;2089677;28;20025;-84
2021/09/01 04:42:11;;;;;;;39.03;15.98;;;;;;;9.57;100.00;93854.09;2090413;28;20025;-85
2021/09/01 04:43:12;;;;;;;31.20;14.52;;;;;;;9.52;100.00;93857.16;2097196;28;20074;-83
2021/09/01 04:44:13;;;;;;;35.80;15.75;;;;;;;9.52;100.00;93849.13;2088644;28;20033;-87
2021/09/01 04:45:14;;;;;;;28.23;14.80;;;;;;;9.52;100.00;93854.47;2097133;28;20062;-86